Time;durP1;ratioP1;P1;durP2;ratioP2;P2;SDS_P1;SDS_P2;PMS_P1;PMS_P2;Temp;Humidity;BMP_temperature;BMP_pressure;BME280_temperature;BME280_humidity;BME280_pressure;Samples;Min_cycle;Max_cycle;Signal;HPM_P1;HPM_P2
2022/07/25 00:00:22;;;;;;;13.63;3.40;;;;;;;25.91;72.76;100439.88;5031680;28;20033;-78
2022/07/25 00:02:47;;;;;;;10.27;3.60;;;;;;;25.88;72.76;100443.09;5031703;28;20039;-79
2022/07/25 00:05:13;;;;;;;11.30;3.80;;;;;;;25.83;73.09;100442.94;5031788;28;20033;-79
2022/07/25 00:07:38;;;;;;;14.20;4.15;;;;;;;25.84;73.19;100436.34;5031338;28;20458;-79
2022/07/25 00:10:04;;;;;;;12.23;3.97;;;;;;;25.84;73.23;100441.84;5031684;28;20083;-79
2022/07/25 00:12:30;;;;;;;21.75;4.28;;;;;;;25.81;73.30;100445.06;5031691;28;20033;-78
2022/07/25 00:14:55;;;;;;;9.95;4.10;;;;;;;25.81;73.64;100456.09;5031537;28;20094;-79
2022/07/25 00:17:21;;;;;;;9.60;4.78;;;;;;;25.80;73.76;100448.91;5031572;28;20029;-79
2022/07/25 00:19:46;;;;;;;10.85;3.60;;;;;;;25.72;73.92;100446.44;5031269;28;20022;-78
2022/07/25 00:22:12;;;;;;;7.28;3.25;;;;;;;25.79;74.15;100452.72;5031617;28;20465;-79
2022/07/25 00:24:38;;;;;;;8.07;3.70;;;;;;;25.78;74.55;100448.28;5031566;28;20034;-78
2022/07/25 00:27:03;;;;;;;9.43;3.67;;;;;;;25.75;74.58;100445.13;5031669;28;20029;-79
2022/07/25 00:29:29;;;;;;;9.40;3.33;;;;;;;25.77;74.90;100449.38;5031799;28;20037;-79
2022/07/25 00:31:55;;;;;;;10.43;2.97;;;;;;;25.75;75.09;100451.50;5031669;28;20037;-78
2022/07/25 00:34:20;;;;;;;9.40;3.60;;;;;;;25.75;74.88;100451.50;5031568;28;20029;-79
2022/07/25 00:36:45;;;;;;;7.25;3.33;;;;;;;25.69;74.97;100455.16;5031495;28;20025;-81
2022/07/25 00:39:11;;;;;;;12.25;3.53;;;;;;;25.62;75.26;100457.16;5031949;28;20033;-78
2022/07/25 00:41:37;;;;;;;7.70;4.50;;;;;;;25.56;75.29;100452.56;5031439;28;20025;-79
2022/07/25 00:44:02;;;;;;;11.05;3.88;;;;;;;25.52;75.94;100462.34;5031529;28;20025;-79
2022/07/25 00:46:28;;;;;;;8.63;4.10;;;;;;;25.55;75.87;100459.13;5031471;28;20029;-78
2022/07/25 00:48:53;;;;;;;10.48;3.90;;;;;;;25.59;75.76;100463.13;5031370;28;20021;-79
2022/07/25 00:51:19;;;;;;;9.73;3.80;;;;;;;25.56;75.38;100485.63;5031337;28;20041;-81
2022/07/25 00:53:45;;;;;;;7.93;3.13;;;;;;;25.65;75.29;100511.81;5031586;28;20057;-78
2022/07/25 00:56:10;;;;;;;6.47;3.30;;;;;;;25.55;75.21;100533.50;5031210;28;20029;-78
2022/07/25 00:58:36;;;;;;;17.15;3.22;;;;;;;25.62;75.29;100578.38;5013191;28;20061;-78
2022/07/25 01:01:03;;;;;;;11.95;3.92;;;;;;;25.71;75.26;100593.56;5031001;28;20060;-78
2022/07/25 01:03:28;;;;;;;6.30;3.58;;;;;;;25.71;75.39;100577.03;5031297;28;20053;-78
2022/07/25 01:05:54;;;;;;;12.55;3.55;;;;;;;25.69;75.62;100562.59;5031286;28;20030;-78
2022/07/25 01:08:20;;;;;;;7.50;3.10;;;;;;;25.70;75.40;100558.78;5031169;28;20025;-78
2022/07/25 01:10:47;;;;;;;8.40;3.58;;;;;;;25.71;75.32;100582.53;5031129;28;20022;-78
2022/07/25 01:13:13;;;;;;;9.52;3.95;;;;;;;25.68;75.56;100582.97;5031184;28;20487;-80
2022/07/25 01:15:38;;;;;;;10.82;4.20;;;;;;;25.73;75.42;100585.03;5031568;28;20037;-77
2022/07/25 01:18:04;;;;;;;8.32;3.90;;;;;;;25.78;75.40;100544.72;5031184;28;20033;-78
2022/07/25 01:20:31;;;;;;;9.57;4.45;;;;;;;25.77;75.76;100531.19;5033293;28;20116;-78
2022/07/25 01:22:57;;;;;;;8.98;4.47;;;;;;;25.75;75.95;100536.91;5034845;28;20082;-79
2022/07/25 01:25:23;;;;;;;15.45;4.72;;;;;;;25.78;76.04;100572.28;5034462;28;20056;-78
2022/07/25 01:27:50;;;;;;;12.30;4.15;;;;;;;25.83;76.18;100564.19;5034272;28;20025;-78
2022/07/25 01:30:16;;;;;;;7.90;4.10;;;;;;;25.80;76.49;100547.28;5034129;28;20091;-78
2022/07/25 01:32:43;;;;;;;11.05;3.70;;;;;;;25.81;76.85;100557.19;5034026;28;20025;-78
2022/07/25 01:35:10;;;;;;;11.07;3.70;;;;;;;25.69;77.12;100561.75;5034169;28;20395;-78
2022/07/25 01:37:35;;;;;;;9.80;3.55;;;;;;;25.68;76.70;100562.84;5034149;28;20499;-78
2022/07/25 01:40:01;;;;;;;5.95;3.75;;;;;;;25.65;76.28;100555.03;5033837;28;20033;-77
2022/07/25 01:42:27;;;;;;;8.88;4.45;;;;;;;25.56;76.00;100556.38;5033749;28;20061;-78
2022/07/25 01:44:53;;;;;;;18.63;5.20;;;;;;;25.51;75.82;100554.28;5016398;28;20039;-80
2022/07/25 01:47:19;;;;;;;11.13;5.35;;;;;;;25.46;75.27;100545.81;5033915;28;20040;-80
2022/07/25 01:49:45;;;;;;;11.35;4.72;;;;;;;25.42;74.39;100541.81;5034314;28;20029;-78
2022/07/25 01:52:11;;;;;;;7.28;4.53;;;;;;;25.32;73.92;100523.03;5033790;28;20560;-80
2022/07/25 01:54:37;;;;;;;18.88;4.25;;;;;;;25.26;72.76;100517.56;5033668;28;20044;-80
2022/07/25 01:57:04;;;;;;;9.73;3.92;;;;;;;25.25;71.77;100505.75;5033672;28;20025;-80
2022/07/25 01:59:29;;;;;;;11.55;4.70;;;;;;;25.20;71.48;100507.47;5033580;28;20045;-80
2022/07/25 02:01:55;;;;;;;9.77;3.88;;;;;;;25.19;70.74;100511.28;5033711;28;20086;-78
2022/07/25 02:04:20;;;;;;;4.95;3.83;;;;;;;25.17;70.38;100510.66;5033469;28;20033;-80
2022/07/25 02:06:46;;;;;;;6.60;3.53;;;;;;;25.13;69.20;100487.41;5033761;28;20040;-80
2022/07/25 02:09:11;;;;;;;5.82;3.83;;;;;;;25.21;67.73;100500.88;5033732;28;20483;-80
2022/07/25 02:11:37;;;;;;;9.90;4.10;;;;;;;25.20;66.82;100496.44;5033564;28;20032;-80
2022/07/25 02:14:02;;;;;;;12.00;4.25;;;;;;;25.25;66.82;100499.41;5033485;28;20090;-79
2022/07/25 02:16:28;;;;;;;5.20;3.08;;;;;;;25.28;66.58;100491.53;5033510;28;20034;-78
2022/07/25 02:18:54;;;;;;;6.25;3.45;;;;;;;25.22;66.65;100484.16;5033491;28;20456;-78
2022/07/25 02:21:20;;;;;;;9.35;4.00;;;;;;;25.23;65.96;100493.25;5033411;28;20365;-78
2022/07/25 02:23:45;;;;;;;11.60;4.72;;;;;;;25.18;65.25;100477.41;5033247;28;20108;-79
2022/07/25 02:26:11;;;;;;;5.70;3.80;;;;;;;25.22;64.25;100488.81;5015528;28;20437;-79
2022/07/25 02:28:37;;;;;;;9.90;4.03;;;;;;;25.25;64.41;100488.38;5015580;28;20022;-78
2022/07/25 02:31:03;;;;;;;10.25;4.78;;;;;;;25.23;64.00;100480.31;5033177;28;20028;-79
2022/07/25 02:33:28;;;;;;;7.72;3.38;;;;;;;25.24;63.46;100487.53;5033391;28;20029;-79
2022/07/25 02:35:54;;;;;;;10.80;4.10;;;;;;;25.21;63.23;100476.97;5033103;28;20079;-79
2022/07/25 02:38:20;;;;;;;18.77;4.40;;;;;;;25.28;63.24;100479.66;5033232;28;20494;-79
2022/07/25 02:40:47;;;;;;;15.48;4.03;;;;;;;25.26;63.22;100476.28;5032985;28;20025;-79
2022/07/25 02:43:12;;;;;;;7.18;4.20;;;;;;;25.30;62.91;100474.78;5033103;28;20037;-78
2022/07/25 02:45:37;;;;;;;7.22;3.55;;;;;;;25.27;62.35;100472.47;5032937;28;20025;-79
2022/07/25 02:48:03;;;;;;;14.65;4.03;;;;;;;25.18;62.56;100465.56;5032940;28;20025;-78
2022/07/25 02:50:29;;;;;;;6.57;4.20;;;;;;;25.20;62.66;100463.41;5033011;28;20507;-78
2022/07/25 02:52:54;;;;;;;23.30;5.07;;;;;;;25.17;62.54;100445.44;5032780;28;20400;-78
2022/07/25 02:55:20;;;;;;;10.45;4.72;;;;;;;25.13;62.61;100429.59;5032825;28;20395;-78
2022/07/25 02:57:46;;;;;;;14.65;4.90;;;;;;;25.08;63.29;100432.16;5032505;28;20124;-78
2022/07/25 03:00:12;;;;;;;19.63;6.15;;;;;;;25.00;63.75;100422.28;5032558;28;20025;-78
2022/07/25 03:02:37;;;;;;;14.35;6.32;;;;;;;25.03;64.06;100429.25;5032426;28;20080;-78
2022/07/25 03:05:11;;;;;;;21.42;7.28;;;;;;;25.10;64.69;100424.56;5033025;28;20428;-79
2022/07/25 03:07:37;;;;;;;15.02;6.68;;;;;;;25.04;65.18;100420.78;5033335;28;20025;-79
2022/07/25 03:10:04;;;;;;;13.35;7.40;;;;;;;25.04;65.53;100425.44;5032599;28;20026;-78
2022/07/25 03:12:31;;;;;;;15.93;6.35;;;;;;;25.06;65.75;100434.31;5032605;28;20055;-78
2022/07/25 03:14:57;;;;;;;11.23;6.75;;;;;;;25.14;65.57;100425.75;5032375;28;20377;-79
2022/07/25 03:17:23;;;;;;;12.45;6.53;;;;;;;25.15;65.64;100427.47;5032539;28;20032;-78
2022/07/25 03:19:49;;;;;;;12.70;6.55;;;;;;;25.21;65.38;100429.31;5032172;28;20021;-78
2022/07/25 03:22:14;;;;;;;22.50;6.47;;;;;;;25.17;64.85;100406.06;5032316;28;20025;-78
2022/07/25 03:24:39;;;;;;;17.88;7.10;;;;;;;25.24;64.96;100420.59;5032019;28;20036;-78
2022/07/25 03:27:05;;;;;;;7.82;6.03;;;;;;;25.24;64.94;100420.59;5032392;28;20446;-79
2022/07/25 03:29:30;;;;;;;14.20;6.55;;;;;;;25.24;65.10;100404.09;5032507;28;20460;-78
2022/07/25 03:31:56;;;;;;;17.00;7.03;;;;;;;25.34;65.11;100404.44;5032237;28;20027;-78
2022/07/25 03:34:21;;;;;;;12.77;7.95;;;;;;;25.37;65.01;100396.56;5032269;28;20021;-78
2022/07/25 03:36:47;;;;;;;14.27;6.30;;;;;;;25.42;65.04;100390.38;5031979;28;20462;-78
2022/07/25 03:39:13;;;;;;;12.35;6.20;;;;;;;25.36;65.35;100396.78;5032620;28;20369;-78
2022/07/25 03:41:39;;;;;;;15.98;6.95;;;;;;;25.43;65.08;100397.56;5031821;28;20070;-78
2022/07/25 03:44:04;;;;;;;17.95;7.00;;;;;;;25.47;64.97;100398.81;5031886;28;20029;-78
2022/07/25 03:46:30;;;;;;;19.88;7.25;;;;;;;25.48;65.04;100394.97;5032155;28;20026;-78
2022/07/25 03:48:55;;;;;;;20.55;7.28;;;;;;;25.53;64.76;100397.94;5031534;28;20052;-79
2022/07/25 03:51:20;;;;;;;9.52;6.60;;;;;;;25.45;65.13;100403.69;5031470;28;20104;-78
2022/07/25 03:54:01;;;;;;;18.30;7.50;;;;;;;25.49;65.14;100396.69;5031822;28;20024;-78
2022/07/25 03:56:40;;;;;;;15.07;7.70;;;;;;;25.54;65.20;100390.47;5031895;28;20028;-79
2022/07/25 03:59:08;;;;;;;12.20;7.40;;;;;;;25.58;65.20;100389.81;5031971;28;20128;-79
2022/07/25 04:01:34;;;;;;;18.85;7.15;;;;;;;25.64;65.08;100383.38;5031832;28;20021;-79
2022/07/25 04:04:00;;;;;;;14.20;7.68;;;;;;;25.64;64.87;100393.56;5031408;28;20022;-79
2022/07/25 04:06:26;;;;;;;13.32;6.28;;;;;;;25.65;64.92;100387.84;5031267;28;20025;-78
2022/07/25 04:08:52;;;;;;;17.38;6.25;;;;;;;25.67;64.44;100385.69;5031464;28;20032;-80
2022/07/25 04:11:18;;;;;;;20.00;7.38;;;;;;;25.72;64.41;100391.34;5030987;28;20452;-80
2022/07/25 04:13:44;;;;;;;15.55;6.50;;;;;;;25.74;64.63;100400.25;5031166;28;20029;-79
2022/07/25 04:16:10;;;;;;;19.65;6.55;;;;;;;25.78;64.31;100409.72;5031216;28;20175;-79
2022/07/25 04:18:35;;;;;;;28.08;7.35;;;;;;;25.79;64.46;100430.69;5031127;28;20056;-80
2022/07/25 04:21:02;;;;;;;11.98;6.35;;;;;;;25.84;64.55;100452.88;5030963;28;20056;-80
2022/07/25 04:23:28;;;;;;;11.70;6.80;;;;;;;25.91;64.16;100456.41;5031218;28;20061;-80
2022/07/25 04:25:54;;;;;;;20.42;7.13;;;;;;;25.98;64.39;100459.94;5031350;28;20484;-80
2022/07/25 04:28:20;;;;;;;20.23;8.27;;;;;;;26.08;64.12;100461.34;5031993;28;20023;-80
2022/07/25 04:30:45;;;;;;;27.20;8.88;;;;;;;26.15;63.62;100453.81;5031328;28;20104;-80
2022/07/25 04:33:11;;;;;;;13.70;7.50;;;;;;;26.19;63.21;100463.34;5030452;28;20064;-79
2022/07/25 04:35:37;;;;;;;10.55;6.22;;;;;;;26.22;63.13;100463.72;5030815;28;20033;-79
2022/07/25 04:38:02;;;;;;;11.27;6.53;;;;;;;26.12;63.21;100462.53;5031064;28;20091;-79
2022/07/25 04:40:28;;;;;;;21.23;6.65;;;;;;;26.11;63.27;100480.16;5031053;28;20037;-79
2022/07/25 04:42:53;;;;;;;23.23;7.00;;;;;;;26.02;63.11;100487.06;5015390;28;20021;-89
2022/07/25 04:45:19;;;;;;;13.63;6.82;;;;;;;26.06;63.28;100480.00;5033076;28;20033;-85
2022/07/25 04:47:45;;;;;;;22.33;7.28;;;;;;;26.10;63.62;100481.22;5032447;28;20026;-85
2022/07/25 04:50:10;;;;;;;15.35;6.10;;;;;;;26.12;63.20;100484.59;5033245;28;20026;-85
2022/07/25 04:52:36;;;;;;;26.35;7.05;;;;;;;26.08;62.88;100483.38;5032446;28;20014;-85
2022/07/25 04:55:02;;;;;;;17.35;6.40;;;;;;;26.11;63.14;100485.69;5034253;28;20025;-85
2022/07/25 04:57:28;;;;;;;26.45;7.53;;;;;;;26.02;63.29;100474.13;5036024;28;20037;-81
2022/07/25 04:59:55;;;;;;;15.45;5.78;;;;;;;26.08;62.89;100484.22;5035854;28;20449;-82
2022/07/25 05:02:20;;;;;;;26.80;6.50;;;;;;;26.07;63.15;100488.03;5035375;28;20772;-81
2022/07/25 05:04:46;;;;;;;12.35;5.70;;;;;;;25.99;63.15;100496.63;5035354;28;20068;-82
2022/07/25 05:07:11;;;;;;;9.77;5.57;;;;;;;26.03;63.63;100514.38;5035863;28;20018;-79
2022/07/25 05:09:37;;;;;;;31.27;7.50;;;;;;;26.11;63.12;100527.88;5036356;28;20399;-83
2022/07/25 05:12:02;;;;;;;39.85;8.85;;;;;;;26.06;63.44;100527.69;5036195;28;20028;-82
2022/07/25 05:14:28;;;;;;;14.48;6.70;;;;;;;26.13;63.17;100544.19;5037377;28;20094;-81
2022/07/25 05:16:53;;;;;;;25.55;8.45;;;;;;;26.18;62.73;100544.34;5036754;28;20486;-83
2022/07/25 05:19:19;;;;;;;29.85;7.30;;;;;;;26.13;62.43;100541.41;5037026;28;20442;-84
2022/07/25 05:21:44;;;;;;;11.75;6.55;;;;;;;26.13;62.51;100545.03;5039619;28;20028;-86
2022/07/25 05:24:10;;;;;;;111.78;15.23;;;;;;;26.17;62.59;100543.53;5021909;28;20036;-83
2022/07/25 05:26:35;;;;;;;54.60;10.30;;;;;;;26.20;62.69;100556.88;5035835;28;20025;-82
2022/07/25 05:29:01;;;;;;;22.23;7.78;;;;;;;26.21;62.76;100560.44;5036026;28;20483;-83
2022/07/25 05:31:26;;;;;;;12.40;7.75;;;;;;;26.14;63.38;100567.94;5033973;28;20045;-77
2022/07/25 05:33:52;;;;;;;20.85;8.85;;;;;;;26.13;63.57;100569.00;5033555;28;20083;-83
2022/07/25 05:36:17;;;;;;;27.23;8.05;;;;;;;26.09;63.92;100573.25;5037680;28;20081;-84
2022/07/25 05:38:43;;;;;;;14.63;9.80;;;;;;;26.06;64.20;100577.31;5037291;28;20098;-82
2022/07/25 05:41:08;;;;;;;19.60;10.13;;;;;;;26.05;64.65;100581.16;5036674;28;20025;-82
2022/07/25 05:43:33;;;;;;;38.58;10.68;;;;;;;26.13;64.74;100591.03;5035725;28;20053;-80
2022/07/25 05:46:04;;;;;;;13.55;8.35;;;;;;;26.11;64.35;100582.16;5036733;28;20021;-80
2022/07/25 05:48:30;;;;;;;14.02;8.38;;;;;;;26.16;64.27;100574.09;5033950;28;20029;-79
2022/07/25 05:50:58;;;;;;;17.10;8.95;;;;;;;26.19;64.73;100568.97;5033870;28;20049;-80
2022/07/25 05:53:24;;;;;;;14.13;9.65;;;;;;;26.18;64.82;100569.16;5015443;28;20108;-78
2022/07/25 05:55:49;;;;;;;17.92;9.75;;;;;;;26.15;65.11;100567.72;5033815;28;20543;-80
2022/07/25 05:58:15;;;;;;;14.50;9.40;;;;;;;26.08;65.44;100563.31;5033703;28;20050;-80
2022/07/25 06:00:40;;;;;;;27.75;9.48;;;;;;;26.09;65.51;100556.72;5039150;28;20021;-82
2022/07/25 06:03:05;;;;;;;22.02;10.52;;;;;;;26.08;65.86;100560.56;5018086;28;20033;-88
2022/07/25 06:05:31;;;;;;;17.63;9.90;;;;;;;26.09;65.85;100556.72;5036312;28;20025;-83
2022/07/25 06:07:56;;;;;;;20.45;9.85;;;;;;;26.10;66.02;100551.00;5037443;28;20025;-85
2022/07/25 06:10:22;;;;;;;15.38;10.35;;;;;;;26.13;66.05;100557.97;5035659;28;20408;-85
2022/07/25 06:12:48;;;;;;;15.52;9.25;;;;;;;26.22;65.69;100556.63;5018275;28;20029;-83
2022/07/25 06:15:13;;;;;;;14.85;10.23;;;;;;;26.28;65.40;100544.69;5036125;28;20032;-86
2022/07/25 06:17:39;;;;;;;17.35;9.68;;;;;;;26.30;65.42;100546.13;5035923;28;20032;-83
2022/07/25 06:20:05;;;;;;;21.42;10.52;;;;;;;26.37;65.09;100551.56;5035609;28;20026;-86
2022/07/25 06:22:30;;;;;;;13.10;9.15;;;;;;;26.38;64.88;100543.09;5035073;28;20824;-88
2022/07/25 06:24:56;;;;;;;30.15;9.90;;;;;;;26.50;64.38;100548.66;5036627;28;20021;-84
2022/07/25 06:27:21;;;;;;;16.92;9.40;;;;;;;26.58;64.29;100551.13;5034067;28;20025;-83
2022/07/25 06:29:47;;;;;;;14.40;9.20;;;;;;;26.62;63.88;100538.56;5035500;28;20071;-85
2022/07/25 06:32:12;;;;;;;20.65;10.20;;;;;;;26.69;63.24;100536.56;5035021;28;20021;-77
2022/07/25 06:34:38;;;;;;;22.30;9.80;;;;;;;26.80;62.86;100544.06;5034614;28;20033;-80
2022/07/25 06:37:03;;;;;;;18.40;10.13;;;;;;;26.81;62.14;100542.16;5036171;28;20032;-87
2022/07/25 06:39:29;;;;;;;27.33;11.65;;;;;;;26.92;61.59;100552.41;5034265;28;20022;-79
2022/07/25 06:41:54;;;;;;;18.13;9.38;;;;;;;26.90;61.64;100527.81;5033998;28;20203;-80
2022/07/25 06:44:20;;;;;;;29.75;11.15;;;;;;;27.03;61.30;100549.69;5034305;28;20026;-79
2022/07/25 06:46:47;;;;;;;16.42;8.63;;;;;;;27.11;61.07;100540.25;5034043;28;20021;-83
2022/07/25 06:49:12;;;;;;;27.00;10.27;;;;;;;27.18;60.85;100540.16;5034368;28;20092;-84
2022/07/25 06:51:38;;;;;;;26.83;10.25;;;;;;;27.18;60.83;100542.91;5033765;28;20108;-81
2022/07/25 06:54:03;;;;;;;15.75;8.32;;;;;;;27.32;60.81;100552.66;5034125;28;20056;-84
2022/07/25 06:56:31;;;;;;;86.80;15.48;;;;;;;27.46;59.86;100548.66;5034831;28;20557;-89
2022/07/25 06:58:58;;;;;;;24.20;20.75;;;;;;;27.47;59.14;100533.75;5035236;28;20068;-84
2022/07/25 07:01:23;;;;;;;14.10;8.30;;;;;;;27.60;58.22;100554.81;5017153;28;20117;-86
2022/07/25 07:03:48;;;;;;;20.30;8.63;;;;;;;27.51;57.28;100532.22;5034601;28;20083;-86
2022/07/25 07:06:14;;;;;;;23.08;7.55;;;;;;;27.67;56.86;100548.09;5034313;28;20025;-82
2022/07/25 07:08:39;;;;;;;15.43;7.25;;;;;;;27.61;56.27;100546.28;5015864;28;20522;-85
2022/07/25 07:11:06;;;;;;;17.20;6.65;;;;;;;27.68;56.08;100546.16;5034064;28;20029;-86
2022/07/25 07:13:32;;;;;;;12.32;7.53;;;;;;;27.87;55.79;100554.13;5016043;28;20044;-85
2022/07/25 07:15:57;;;;;;;15.07;7.10;;;;;;;28.00;55.77;100564.97;5033168;28;20086;-82
2022/07/25 07:18:23;;;;;;;12.80;6.68;;;;;;;28.11;55.40;100563.28;5031832;28;20081;-82
2022/07/25 07:20:48;;;;;;;13.48;7.28;;;;;;;28.22;55.56;100545.00;5033258;28;20017;-81
2022/07/25 07:23:14;;;;;;;11.88;8.18;;;;;;;28.38;55.45;100552.56;5033178;28;20088;-82
2022/07/25 07:25:41;;;;;;;12.90;8.63;;;;;;;28.37;55.53;100559.19;5033796;28;20526;-83
2022/07/25 07:28:06;;;;;;;16.38;9.07;;;;;;;28.45;55.49;100553.28;5034690;28;20025;-84
2022/07/25 07:30:32;;;;;;;17.15;8.35;;;;;;;28.46;55.72;100549.44;5034595;28;20049;-90
2022/07/25 07:32:58;;;;;;;22.27;8.20;;;;;;;28.56;55.45;100552.44;5033385;28;20095;-86
2022/07/25 07:35:24;;;;;;;16.38;8.13;;;;;;;28.50;55.73;100553.41;5033612;28;20031;-84
2022/07/25 07:37:51;;;;;;;17.60;9.32;;;;;;;28.58;55.33;100564.94;5033886;28;20403;-88
2022/07/25 07:40:16;;;;;;;12.75;8.90;;;;;;;28.58;55.73;100564.94;5034109;28;20037;-86
2022/07/25 07:42:44;;;;;;;12.52;7.88;;;;;;;28.69;55.61;100563.22;5033649;28;20079;-84
2022/07/25 07:45:19;;;;;;;13.90;9.05;;;;;;;28.79;55.08;100554.31;5033160;28;20021;-82
2022/07/25 07:47:48;;;;;;;16.73;8.13;;;;;;;28.85;54.83;100554.16;5033052;28;20029;-86
2022/07/25 07:50:19;;;;;;;15.55;9.35;;;;;;;29.00;55.06;100554.47;5034047;28;20021;-89
2022/07/25 07:52:45;;;;;;;23.20;8.05;;;;;;;29.17;54.33;100563.66;5033086;28;20061;-86
2022/07/25 07:57:55;;;;;;;14.95;8.77;;;;;;;29.12;53.18;100571.03;5033381;28;20459;-82
2022/07/25 08:00:22;;;;;;;15.65;8.32;;;;;;;29.08;53.53;100564.31;5033518;28;20038;-82
2022/07/25 08:02:50;;;;;;;12.27;7.85;;;;;;;29.14;54.12;100563.34;5033797;28;20488;-86
2022/07/25 08:05:23;;;;;;;15.52;7.63;;;;;;;29.07;53.34;100551.56;5034094;28;20104;-86
2022/07/25 08:07:50;;;;;;;14.50;7.72;;;;;;;29.15;53.10;100557.53;5036446;28;20025;-83
2022/07/25 08:10:21;;;;;;;14.75;7.40;;;;;;;29.12;53.43;100558.03;5034929;28;20030;-83
2022/07/25 08:12:47;;;;;;;16.15;8.50;;;;;;;28.99;53.69;100561.09;5035506;28;20104;-87
2022/07/25 08:15:13;;;;;;;10.48;9.00;;;;;;;28.96;54.00;100549.69;5035320;28;20084;-85
2022/07/25 08:17:38;;;;;;;13.52;9.43;;;;;;;29.04;54.11;100568.66;5035475;28;20545;-82
2022/07/25 08:20:08;;;;;;;33.60;20.45;;;;;;;28.88;53.85;100578.59;5035103;28;20116;-83
2022/07/25 08:22:41;;;;;;;21.52;13.30;;;;;;;28.84;54.21;100580.16;5034513;28;20028;-84
2022/07/25 08:25:09;;;;;;;14.95;9.50;;;;;;;28.78;54.50;100586.69;5034988;28;20099;-84
2022/07/25 08:27:35;;;;;;;15.07;9.68;;;;;;;28.71;54.98;100580.47;5015736;28;20034;-84
2022/07/25 08:30:03;;;;;;;20.58;10.45;;;;;;;28.76;55.14;100588.88;5037146;28;20026;-83
2022/07/25 08:32:28;;;;;;;15.10;9.98;;;;;;;28.67;55.31;100590.31;5037737;28;20052;-82
2022/07/25 08:34:55;;;;;;;16.73;10.65;;;;;;;28.48;56.00;100580.47;5021698;28;20029;-87
2022/07/25 08:37:20;;;;;;;16.08;11.13;;;;;;;28.50;56.31;100592.16;5038874;28;20033;-85
2022/07/25 08:39:46;;;;;;;13.18;10.10;;;;;;;28.53;56.49;100584.16;5039536;28;20025;-88
2022/07/25 08:42:12;;;;;;;20.55;9.65;;;;;;;28.37;57.23;100589.63;5037926;28;20071;-80
2022/07/25 08:44:41;;;;;;;23.13;11.18;;;;;;;28.60;56.86;100578.50;5036746;28;20113;-86
2022/07/25 08:47:08;;;;;;;15.30;10.43;;;;;;;28.66;56.35;100588.63;5019724;28;20025;-82
2022/07/25 08:49:35;;;;;;;19.48;10.25;;;;;;;28.69;56.62;100579.84;5038262;28;20112;-85
2022/07/25 08:52:02;;;;;;;20.80;9.93;;;;;;;28.82;56.37;100587.88;5039414;28;20026;-86
2022/07/25 08:54:30;;;;;;;23.52;10.40;;;;;;;28.99;55.90;100574.94;5039010;28;20056;-86
2022/07/25 08:56:56;;;;;;;18.42;9.40;;;;;;;29.08;55.31;100584.53;5038165;28;20025;-81
2022/07/25 08:59:21;;;;;;;27.33;9.40;;;;;;;29.10;54.42;100574.06;5036179;28;20392;-80
2022/07/25 09:01:47;;;;;;;17.40;9.00;;;;;;;29.15;54.59;100571.38;5036430;28;20030;-84
2022/07/25 09:04:12;;;;;;;22.17;9.50;;;;;;;29.11;54.52;100584.03;5036153;28;20048;-78
2022/07/25 09:06:50;;;;;;;23.73;10.18;;;;;;;29.30;54.27;100581.09;5033459;28;20116;-80
2022/07/25 09:09:17;;;;;;;11.30;9.13;;;;;;;29.36;54.25;100572.63;5035678;28;20033;-82
2022/07/25 09:11:42;;;;;;;16.90;9.32;;;;;;;29.47;53.83;100576.44;5036239;28;20026;-83
2022/07/25 09:14:10;;;;;;;17.13;10.73;;;;;;;29.31;53.42;100569.78;5035833;28;20083;-79
2022/07/25 09:16:41;;;;;;;26.65;12.50;;;;;;;29.55;53.56;100573.25;5035388;28;20399;-85
2022/07/25 09:19:11;;;;;;;23.55;9.05;;;;;;;29.60;53.29;100570.59;5037238;28;20037;-84
2022/07/25 09:21:38;;;;;;;35.63;17.10;;;;;;;29.56;52.89;100583.25;5035329;28;20463;-82
2022/07/25 09:24:22;;;;;;;21.60;12.70;;;;;;;29.42;52.97;100573.56;5036397;28;20053;-82
2022/07/25 09:26:53;;;;;;;34.17;10.80;;;;;;;29.46;53.70;100595.00;5036486;28;20100;-83
2022/07/25 09:29:22;;;;;;;13.33;10.50;;;;;;;29.30;53.70;100573.63;5036282;28;20026;-82
2022/07/25 09:31:48;;;;;;;14.50;9.73;;;;;;;29.17;53.79;100569.19;5036012;28;20044;-83
2022/07/25 09:34:17;;;;;;;23.35;9.02;;;;;;;29.20;53.75;100578.13;5035122;28;20407;-81
2022/07/25 09:36:54;;;;;;;22.17;10.32;;;;;;;29.14;54.00;100586.31;5035102;28;20107;-82
2022/07/25 09:39:20;;;;;;;30.10;11.00;;;;;;;29.19;54.14;100588.34;5036169;28;20033;-83
2022/07/25 09:41:48;;;;;;;21.67;11.80;;;;;;;29.23;53.88;100588.69;5035098;28;20099;-80
2022/07/25 09:44:23;;;;;;;15.30;9.70;;;;;;;29.22;53.96;100595.31;5015551;28;20029;-81
2022/07/25 09:46:48;;;;;;;21.50;9.80;;;;;;;29.21;54.27;100588.94;5033715;28;20095;-81
2022/07/25 09:49:14;;;;;;;19.95;10.95;;;;;;;29.42;53.96;100590.19;5033324;28;20029;-78
2022/07/25 09:51:40;;;;;;;17.10;10.32;;;;;;;29.58;53.60;100576.34;5032257;28;20032;-79
2022/07/25 09:54:06;;;;;;;21.27;10.05;;;;;;;29.84;53.08;100582.38;5032734;28;20051;-79
2022/07/25 09:56:34;;;;;;;13.63;9.32;;;;;;;29.87;52.75;100579.09;5034996;28;20440;-79
2022/07/25 09:59:00;;;;;;;10.75;8.95;;;;;;;30.11;52.29;100578.66;5016067;28;20113;-79
2022/07/25 10:01:36;;;;;;;18.83;9.95;;;;;;;30.14;52.45;100572.63;5033493;28;20045;-78
2022/07/25 10:04:14;;;;;;;15.80;10.18;;;;;;;30.23;51.93;100579.41;5031618;28;20051;-80
2022/07/25 10:06:49;;;;;;;18.63;11.15;;;;;;;30.34;52.26;100573.97;5014171;28;20431;-79
2022/07/25 10:09:15;;;;;;;14.10;10.02;;;;;;;30.43;52.00;100572.47;5031627;28;20060;-78
2022/07/25 10:12:03;;;;;;;21.33;9.98;;;;;;;30.50;52.34;100578.69;5031410;28;20033;-77
2022/07/25 10:14:29;;;;;;;15.70;9.73;;;;;;;30.63;51.61;100567.22;5032640;28;20083;-82
2022/07/25 10:16:55;;;;;;;21.50;9.73;;;;;;;30.68;51.22;100575.59;5032282;28;20029;-79
2022/07/25 10:19:38;;;;;;;13.93;10.05;;;;;;;30.73;50.96;100567.34;5034230;28;20104;-81
2022/07/25 10:22:04;;;;;;;12.60;9.27;;;;;;;30.70;50.63;100562.31;5034022;28;20467;-80
2022/07/25 10:24:34;;;;;;;17.33;9.80;;;;;;;30.55;51.86;100564.91;5033780;28;20120;-80
2022/07/25 10:27:07;;;;;;;12.23;9.63;;;;;;;30.50;52.32;100567.59;5032996;28;20029;-78
2022/07/25 10:29:34;;;;;;;12.98;9.13;;;;;;;30.43;52.39;100561.38;5032937;28;20408;-79
2022/07/25 10:32:07;;;;;;;18.85;11.45;;;;;;;30.31;52.77;100557.84;5033449;28;20025;-82
2022/07/25 10:34:33;;;;;;;27.23;15.60;;;;;;;30.05;53.27;100554.72;5033922;28;20188;-85
2022/07/25 10:37:12;;;;;;;24.30;9.60;;;;;;;29.90;53.99;100546.16;5034665;28;20025;-80
2022/07/25 10:39:47;;;;;;;21.77;9.60;;;;;;;29.95;54.11;100554.56;5016219;28;20438;-80
2022/07/25 10:42:20;;;;;;;17.15;9.68;;;;;;;30.09;53.72;100544.75;5032839;28;20436;-82
2022/07/25 10:45:08;;;;;;;13.68;9.30;;;;;;;30.26;53.69;100550.28;5033824;28;20227;-84
2022/07/25 10:47:41;;;;;;;15.32;8.93;;;;;;;30.16;54.01;100559.31;5033475;28;20064;-82
2022/07/25 10:50:10;;;;;;;18.73;8.50;;;;;;;30.47;52.79;100541.19;5033390;28;20157;-81
2022/07/25 10:52:41;;;;;;;17.75;8.68;;;;;;;30.59;52.55;100533.56;5032938;28;20083;-84
2022/07/25 10:55:07;;;;;;;16.17;8.73;;;;;;;30.57;52.60;100532.16;5031597;28;20027;-80
2022/07/25 10:57:33;;;;;;;20.02;8.75;;;;;;;30.52;52.77;100526.53;5014951;28;20025;-80
2022/07/25 11:00:06;;;;;;;25.65;8.63;;;;;;;30.37;52.90;100524.34;5033256;28;20128;-79
2022/07/25 11:02:32;;;;;;;19.67;9.50;;;;;;;30.28;53.40;100520.34;5032795;28;20061;-80
2022/07/25 11:05:00;;;;;;;25.15;10.90;;;;;;;30.40;53.99;100531.34;5032910;28;20057;-79
2022/07/25 11:07:27;;;;;;;15.05;9.00;;;;;;;30.30;54.98;100529.28;5032705;28;20017;-82
2022/07/25 11:09:58;;;;;;;12.75;9.35;;;;;;;30.35;55.09;100515.47;5032829;28;20028;-80
2022/07/25 11:12:24;;;;;;;16.92;10.05;;;;;;;30.35;55.90;100509.06;5032677;28;20021;-79
2022/07/25 11:14:49;;;;;;;20.00;10.35;;;;;;;30.48;55.78;100515.13;5032091;28;20092;-79
2022/07/25 11:17:21;;;;;;;33.70;11.48;;;;;;;30.18;56.88;100506.34;5031998;28;20458;-78